x

Kaunakakai, Molokai Airport (91186) Weather Station

4:15pm - Sun 23rd Jul 2017 All times are HST. -10 hours from GMT.

  • Wind
    16mph, 30mph gusts
  • 空気 Temp 87°f
  • Sea Pressure 1013.2mb
  • Kaunakakai, Molokai Airport
  • Kaunakakai, Molokai Airport

More Historic Weather Station data

Upgrade to MSW Pro to gain access to the past 30 days of data for over 8000 Wavebouys and Weather Stations around the globe.

Join Pro

Comparision Forecast

View Surf forecast
   
Sun 07/23 4:15pm 16 30 mph 1013.2mb 87f
3:54pm 16 28 mph 1013.5mb 89f
2:54pm 16 25 mph 1013.9mb 89f
1:54pm 17 24 mph 1014.2mb 89f
12:54pm 15 28 mph 1015.2mb 89f
11:54am 21 28 mph 1015.6mb 90f
11:01am 18 29 mph 1015.6mb 88f
10:54am 15 25 mph 1015.6mb 89f
9:54am 12 24 mph 1015.9mb 88f
8:54am 14 23 mph 1016.3mb 86f
7:54am 13
mph
1015.9mb 84f
6:54am 14 22 mph 1015.6mb 81f
6:07am 14 24 mph 1015.2mb 81f
6:01am 14 24 mph 1014.9mb 80f
5:54am 14 22 mph 1014.9mb 80f
4:54am 13
mph
1014.2mb 80f
3:54am 10 21 mph 1013.9mb 80f
2:54am 8 20 mph 1014.2mb 80f
1:54am 10 24 mph 1014.9mb 79f
12:54am 12 21 mph 1015.6mb 80f
Sat 07/22 11:54pm 9
mph
1016.3mb 81f
10:54pm 14 22 mph 1016.3mb 81f
9:54pm 12 20 mph 1016.3mb 81f
8:54pm 16 25 mph 1015.9mb 81f
7:54pm 7
mph
1015.6mb 82f
6:54pm 15 22 mph 1014.9mb 83f
5:54pm 14 23 mph 1014.2mb 85f
4:54pm 15 24 mph 1014.2mb 87f
3:54pm 10 18 mph 1014.6mb 87f
2:54pm 13 22 mph 1014.9mb 87f
1:54pm 9 22 mph 1015.2mb 88f
12:54pm 16 28 mph 1015.2mb 88f
11:54am 15 24 mph 1015.6mb 86f
10:54am 16 24 mph 1015.9mb 89f
9:54am 18 25 mph 1015.9mb 87f
8:54am 16 25 mph 1016.3mb 85f
7:54am 13 22 mph 1015.9mb 83f
6:54am 9 18 mph 1015.6mb 81f
5:54am 6
mph
1014.9mb 80f
4:54am 14 20 mph 1014.2mb 80f
3:54am 14 20 mph 1014.2mb 80f
2:54am 16 23 mph 1014.6mb 80f
1:54am 14 24 mph 1014.9mb 79f
12:54am 17 30 mph 1015.6mb 80f
Fri 07/21 11:54pm 12
mph
1016.3mb 81f
10:54pm 13
mph
1016.9mb 81f
9:54pm 14 22 mph 1016.9mb 81f
8:54pm 13 22 mph 1016.6mb 81f
7:54pm 14 24 mph 1016.3mb 81f
6:54pm 12 21 mph 1015.6mb 82f
5:54pm 15 25 mph 1015.2mb 82f
4:54pm 15 27 mph 1014.9mb 85f
3:54pm 21 32 mph 1015.2mb 86f
2:54pm 15 31 mph 1015.6mb 86f
1:54pm 18 32 mph 1016.3mb 89f
12:54pm 18 30 mph 1016.6mb 86f
11:54am 15 30 mph 1016.9mb 89f
10:54am 17 31 mph 1018mb 89f
9:54am 21 27 mph 1018.3mb 87f
8:54am 18 28 mph 1018.3mb 85f
7:54am 21 28 mph 1018mb 84f
6:54am 16 27 mph 1017.3mb 81f
5:54am 14 24 mph 1016.9mb 80f
4:54am 16 23 mph 1016.6mb 80f
3:54am 9 20 mph 1016.9mb 79f
2:54am 20 30 mph 1016.9mb 80f
1:54am 12 22 mph 1017.3mb 80f
12:54am 14 20 mph 1018mb 79f
Thu 07/20 11:54pm 14 25 mph 1018.3mb 80f
10:54pm 12 23 mph 1019mb 80f
9:54pm 15 25 mph 1018.6mb 80f
8:54pm 12 21 mph 1018.3mb 81f
7:54pm 13 20 mph 1017.6mb 81f
6:54pm 15 24 mph 1016.9mb 82f
5:54pm 15 29 mph 1016.3mb 84f
4:54pm 17 29 mph 1016.3mb 85f
3:54pm 21 31 mph 1016.6mb 87f
2:54pm 22 31 mph 1016.9mb 90f
2:28pm 21 36 mph 1017.3mb 88f
1:54pm 23 35 mph 1017.3mb 88f
12:54pm 20 35 mph 1018mb 89f
11:54am 24 35 mph 1018.3mb 88f
10:54am 17 33 mph 1019mb 88f
9:54am 20 27 mph 1019mb 88f
8:54am 17 28 mph 1019mb 86f
7:54am 7
mph
1018.6mb 85f
6:54am 12
mph
1018.6mb 81f
5:54am 9
mph
1018mb 80f
4:54am 13 20 mph 1017.6mb 80f
3:54am 12
mph
1017.6mb 80f